sensor_id;sensor_type;location;lat;lon;timestamp;temperature;humidity
38458;DHT22;24239;48.058;10.486;2022-07-04T00:01:04;18.60;99.90
38458;DHT22;24239;48.058;10.486;2022-07-04T00:03:30;18.50;99.90
38458;DHT22;24239;48.058;10.486;2022-07-04T00:05:55;18.40;99.90
38458;DHT22;24239;48.058;10.486;2022-07-04T00:08:21;18.40;99.90
38458;DHT22;24239;48.058;10.486;2022-07-04T00:10:48;18.40;99.90
38458;DHT22;24239;48.058;10.486;2022-07-04T00:13:14;18.40;99.90
38458;DHT22;24239;48.058;10.486;2022-07-04T00:15:39;18.40;99.90
38458;DHT22;24239;48.058;10.486;2022-07-04T00:18:06;18.40;99.90
38458;DHT22;24239;48.058;10.486;2022-07-04T00:20:31;18.40;99.90
38458;DHT22;24239;48.058;10.486;2022-07-04T00:22:57;18.30;99.90
38458;DHT22;24239;48.058;10.486;2022-07-04T00:25:23;18.30;99.90
38458;DHT22;24239;48.058;10.486;2022-07-04T00:27:49;18.40;99.90
38458;DHT22;24239;48.058;10.486;2022-07-04T00:30:14;18.40;99.90
38458;DHT22;24239;48.058;10.486;2022-07-04T00:32:40;18.40;99.90
38458;DHT22;24239;48.058;10.486;2022-07-04T00:35:06;18.40;99.90
38458;DHT22;24239;48.058;10.486;2022-07-04T00:37:33;18.50;99.90
38458;DHT22;24239;48.058;10.486;2022-07-04T00:39:58;18.40;99.90
38458;DHT22;24239;48.058;10.486;2022-07-04T00:42:24;18.40;99.90
38458;DHT22;24239;48.058;10.486;2022-07-04T00:44:50;18.40;99.90
38458;DHT22;24239;48.058;10.486;2022-07-04T00:47:15;18.50;99.90
38458;DHT22;24239;48.058;10.486;2022-07-04T00:49:41;18.40;99.90
38458;DHT22;24239;48.058;10.486;2022-07-04T00:52:07;18.50;99.90
38458;DHT22;24239;48.058;10.486;2022-07-04T00:54:33;18.60;99.90
38458;DHT22;24239;48.058;10.486;2022-07-04T00:57:00;18.70;99.90
38458;DHT22;24239;48.058;10.486;2022-07-04T00:59:26;18.70;99.90
38458;DHT22;24239;48.058;10.486;2022-07-04T01:01:52;18.60;99.90
38458;DHT22;24239;48.058;10.486;2022-07-04T01:04:18;18.70;99.90
38458;DHT22;24239;48.058;10.486;2022-07-04T01:06:44;18.60;99.90
38458;DHT22;24239;48.058;10.486;2022-07-04T01:09:11;18.60;99.90
38458;DHT22;24239;48.058;10.486;2022-07-04T01:11:37;18.50;99.90
38458;DHT22;24239;48.058;10.486;2022-07-04T01:14:03;18.50;99.90
38458;DHT22;24239;48.058;10.486;2022-07-04T01:16:32;18.50;99.90
38458;DHT22;24239;48.058;10.486;2022-07-04T01:18:58;18.50;99.90
38458;DHT22;24239;48.058;10.486;2022-07-04T01:21:24;18.50;99.90
38458;DHT22;24239;48.058;10.486;2022-07-04T01:23:49;18.50;99.90
38458;DHT22;24239;48.058;10.486;2022-07-04T01:26:15;18.50;99.90
38458;DHT22;24239;48.058;10.486;2022-07-04T01:28:41;18.40;99.90
38458;DHT22;24239;48.058;10.486;2022-07-04T01:31:07;18.40;99.90
38458;DHT22;24239;48.058;10.486;2022-07-04T01:33:33;18.40;99.90
38458;DHT22;24239;48.058;10.486;2022-07-04T01:35:59;18.40;99.90
38458;DHT22;24239;48.058;10.486;2022-07-04T01:38:25;18.30;99.90
38458;DHT22;24239;48.058;10.486;2022-07-04T01:40:51;18.30;99.90
38458;DHT22;24239;48.058;10.486;2022-07-04T01:43:17;18.30;99.90
38458;DHT22;24239;48.058;10.486;2022-07-04T01:45:43;18.20;99.90
38458;DHT22;24239;48.058;10.486;2022-07-04T01:48:11;18.20;99.90
38458;DHT22;24239;48.058;10.486;2022-07-04T01:50:37;18.20;99.90
38458;DHT22;24239;48.058;10.486;2022-07-04T01:53:03;18.20;99.90
38458;DHT22;24239;48.058;10.486;2022-07-04T01:55:30;18.10;99.90
38458;DHT22;24239;48.058;10.486;2022-07-04T01:57:56;18.10;99.90
38458;DHT22;24239;48.058;10.486;2022-07-04T02:00:23;18.10;99.90
38458;DHT22;24239;48.058;10.486;2022-07-04T02:03:08;18.10;99.90
38458;DHT22;24239;48.058;10.486;2022-07-04T02:05:33;18.10;99.90
38458;DHT22;24239;48.058;10.486;2022-07-04T02:08:00;18.20;99.90
38458;DHT22;24239;48.058;10.486;2022-07-04T02:10:25;18.20;99.90
38458;DHT22;24239;48.058;10.486;2022-07-04T02:12:51;18.10;99.90
38458;DHT22;24239;48.058;10.486;2022-07-04T02:15:35;18.00;99.90
38458;DHT22;24239;48.058;10.486;2022-07-04T02:18:02;17.90;99.90
38458;DHT22;24239;48.058;10.486;2022-07-04T02:20:28;18.00;99.90
38458;DHT22;24239;48.058;10.486;2022-07-04T02:22:54;18.00;99.90
38458;DHT22;24239;48.058;10.486;2022-07-04T02:25:20;17.90;99.90
38458;DHT22;24239;48.058;10.486;2022-07-04T02:27:46;17.90;99.90
38458;DHT22;24239;48.058;10.486;2022-07-04T02:30:12;17.90;99.90
38458;DHT22;24239;48.058;10.486;2022-07-04T02:32:38;17.90;99.90
38458;DHT22;24239;48.058;10.486;2022-07-04T02:35:05;17.80;99.90
38458;DHT22;24239;48.058;10.486;2022-07-04T02:37:31;17.70;99.90
38458;DHT22;24239;48.058;10.486;2022-07-04T02:39:57;17.70;99.90
38458;DHT22;24239;48.058;10.486;2022-07-04T02:42:23;17.70;99.90
38458;DHT22;24239;48.058;10.486;2022-07-04T02:44:48;17.70;99.90
38458;DHT22;24239;48.058;10.486;2022-07-04T02:47:15;17.60;99.90
38458;DHT22;24239;48.058;10.486;2022-07-04T02:49:41;17.60;99.90
38458;DHT22;24239;48.058;10.486;2022-07-04T02:52:07;17.60;99.90
38458;DHT22;24239;48.058;10.486;2022-07-04T02:54:33;17.60;99.90
38458;DHT22;24239;48.058;10.486;2022-07-04T02:56:59;17.60;99.90
38458;DHT22;24239;48.058;10.486;2022-07-04T02:59:24;17.60;99.90
38458;DHT22;24239;48.058;10.486;2022-07-04T03:01:50;17.60;99.90
38458;DHT22;24239;48.058;10.486;2022-07-04T03:04:16;17.60;99.90
38458;DHT22;24239;48.058;10.486;2022-07-04T03:06:41;17.50;99.90
38458;DHT22;24239;48.058;10.486;2022-07-04T03:09:09;17.60;99.90
38458;DHT22;24239;48.058;10.486;2022-07-04T03:11:35;17.50;99.90
38458;DHT22;24239;48.058;10.486;2022-07-04T03:14:01;17.50;99.90
38458;DHT22;24239;48.058;10.486;2022-07-04T03:16:27;17.50;99.90
38458;DHT22;24239;48.058;10.486;2022-07-04T03:18:52;17.50;99.90
38458;DHT22;24239;48.058;10.486;2022-07-04T03:21:18;17.40;99.90
38458;DHT22;24239;48.058;10.486;2022-07-04T03:23:44;17.50;99.90
38458;DHT22;24239;48.058;10.486;2022-07-04T03:26:24;17.60;99.90
38458;DHT22;24239;48.058;10.486;2022-07-04T03:28:50;17.70;99.90
38458;DHT22;24239;48.058;10.486;2022-07-04T03:31:16;17.80;99.90
38458;DHT22;24239;48.058;10.486;2022-07-04T03:33:42;17.80;99.90
38458;DHT22;24239;48.058;10.486;2022-07-04T03:36:08;17.90;99.90
38458;DHT22;24239;48.058;10.486;2022-07-04T03:38:34;18.00;99.90
38458;DHT22;24239;48.058;10.486;2022-07-04T03:41:00;18.10;99.90
38458;DHT22;24239;48.058;10.486;2022-07-04T03:43:25;18.10;99.90
38458;DHT22;24239;48.058;10.486;2022-07-04T03:45:54;18.10;99.90
38458;DHT22;24239;48.058;10.486;2022-07-04T03:48:20;18.10;99.90
38458;DHT22;24239;48.058;10.486;2022-07-04T03:50:46;18.10;99.90
38458;DHT22;24239;48.058;10.486;2022-07-04T03:53:11;18.10;99.90
38458;DHT22;24239;48.058;10.486;2022-07-04T03:55:38;18.30;99.90
38458;DHT22;24239;48.058;10.486;2022-07-04T03:58:07;18.40;99.90
38458;DHT22;24239;48.058;10.486;2022-07-04T04:00:32;18.40;99.90
38458;DHT22;24239;48.058;10.486;2022-07-04T04:02:58;18.30;99.90
38458;DHT22;24239;48.058;10.486;2022-07-04T04:05:25;18.20;99.90
38458;DHT22;24239;48.058;10.486;2022-07-04T04:07:58;18.20;99.90
38458;DHT22;24239;48.058;10.486;2022-07-04T04:10:26;18.20;99.90
38458;DHT22;24239;48.058;10.486;2022-07-04T04:12:52;18.30;99.90
38458;DHT22;24239;48.058;10.486;2022-07-04T04:15:17;18.40;99.90
38458;DHT22;24239;48.058;10.486;2022-07-04T04:17:43;18.50;99.90
38458;DHT22;24239;48.058;10.486;2022-07-04T04:20:09;18.50;99.90
38458;DHT22;24239;48.058;10.486;2022-07-04T04:22:35;18.60;99.90
38458;DHT22;24239;48.058;10.486;2022-07-04T04:25:01;18.60;99.90
38458;DHT22;24239;48.058;10.486;2022-07-04T04:27:27;18.70;99.90
38458;DHT22;24239;48.058;10.486;2022-07-04T04:29:53;18.80;99.90
38458;DHT22;24239;48.058;10.486;2022-07-04T04:32:19;18.80;99.90
38458;DHT22;24239;48.058;10.486;2022-07-04T04:34:44;18.80;99.90
38458;DHT22;24239;48.058;10.486;2022-07-04T04:37:10;18.90;99.90
38458;DHT22;24239;48.058;10.486;2022-07-04T04:39:36;18.80;99.90
38458;DHT22;24239;48.058;10.486;2022-07-04T04:42:02;18.80;99.90
38458;DHT22;24239;48.058;10.486;2022-07-04T04:44:28;18.90;99.90
38458;DHT22;24239;48.058;10.486;2022-07-04T04:46:53;18.80;99.90
38458;DHT22;24239;48.058;10.486;2022-07-04T04:49:19;18.90;99.90
38458;DHT22;24239;48.058;10.486;2022-07-04T04:51:45;18.90;99.90
38458;DHT22;24239;48.058;10.486;2022-07-04T04:54:11;18.90;99.90
38458;DHT22;24239;48.058;10.486;2022-07-04T04:56:37;19.00;99.90
38458;DHT22;24239;48.058;10.486;2022-07-04T04:59:03;19.00;99.90
38458;DHT22;24239;48.058;10.486;2022-07-04T05:01:28;19.00;99.90
38458;DHT22;24239;48.058;10.486;2022-07-04T05:03:54;19.00;99.90
38458;DHT22;24239;48.058;10.486;2022-07-04T05:06:20;19.00;99.90
38458;DHT22;24239;48.058;10.486;2022-07-04T05:08:46;19.00;99.90
38458;DHT22;24239;48.058;10.486;2022-07-04T05:11:11;19.00;99.90
38458;DHT22;24239;48.058;10.486;2022-07-04T05:13:37;19.00;99.90
38458;DHT22;24239;48.058;10.486;2022-07-04T05:16:03;19.00;99.90
38458;DHT22;24239;48.058;10.486;2022-07-04T05:18:29;19.00;99.90
38458;DHT22;24239;48.058;10.486;2022-07-04T05:20:55;19.00;99.90
38458;DHT22;24239;48.058;10.486;2022-07-04T05:23:21;18.90;99.90
38458;DHT22;24239;48.058;10.486;2022-07-04T05:25:50;18.90;99.90
38458;DHT22;24239;48.058;10.486;2022-07-04T05:28:15;18.90;99.90
38458;DHT22;24239;48.058;10.486;2022-07-04T05:30:41;18.80;99.90
38458;DHT22;24239;48.058;10.486;2022-07-04T05:33:08;18.80;99.90
38458;DHT22;24239;48.058;10.486;2022-07-04T05:35:33;18.80;99.90
38458;DHT22;24239;48.058;10.486;2022-07-04T05:38:00;18.80;99.90
38458;DHT22;24239;48.058;10.486;2022-07-04T05:40:25;18.70;99.90
38458;DHT22;24239;48.058;10.486;2022-07-04T05:42:51;18.70;99.90
38458;DHT22;24239;48.058;10.486;2022-07-04T05:45:17;18.70;99.90
38458;DHT22;24239;48.058;10.486;2022-07-04T05:47:43;18.60;99.90
38458;DHT22;24239;48.058;10.486;2022-07-04T05:50:09;18.60;99.90
38458;DHT22;24239;48.058;10.486;2022-07-04T05:52:35;18.60;99.90
38458;DHT22;24239;48.058;10.486;2022-07-04T05:55:02;18.50;99.90
38458;DHT22;24239;48.058;10.486;2022-07-04T05:57:28;18.50;99.90
38458;DHT22;24239;48.058;10.486;2022-07-04T05:59:53;18.50;99.90
38458;DHT22;24239;48.058;10.486;2022-07-04T06:02:19;18.50;99.90
38458;DHT22;24239;48.058;10.486;2022-07-04T06:04:45;18.60;99.90
38458;DHT22;24239;48.058;10.486;2022-07-04T06:07:11;18.60;99.90
38458;DHT22;24239;48.058;10.486;2022-07-04T06:09:37;18.70;99.90
38458;DHT22;24239;48.058;10.486;2022-07-04T06:12:04;18.80;99.90
38458;DHT22;24239;48.058;10.486;2022-07-04T06:14:29;18.80;99.90
38458;DHT22;24239;48.058;10.486;2022-07-04T06:16:55;18.90;99.90
38458;DHT22;24239;48.058;10.486;2022-07-04T06:19:21;18.90;99.90
38458;DHT22;24239;48.058;10.486;2022-07-04T06:21:47;19.00;99.90
38458;DHT22;24239;48.058;10.486;2022-07-04T06:24:13;19.00;99.90
38458;DHT22;24239;48.058;10.486;2022-07-04T06:26:38;19.10;99.90
38458;DHT22;24239;48.058;10.486;2022-07-04T06:29:04;19.20;99.90
38458;DHT22;24239;48.058;10.486;2022-07-04T06:31:30;19.20;99.90
38458;DHT22;24239;48.058;10.486;2022-07-04T06:33:56;19.20;99.90
38458;DHT22;24239;48.058;10.486;2022-07-04T06:36:40;19.30;99.90
38458;DHT22;24239;48.058;10.486;2022-07-04T06:39:06;19.40;99.90
38458;DHT22;24239;48.058;10.486;2022-07-04T06:41:31;19.40;99.90
38458;DHT22;24239;48.058;10.486;2022-07-04T06:43:57;19.40;99.90
38458;DHT22;24239;48.058;10.486;2022-07-04T06:46:23;19.40;99.90
38458;DHT22;24239;48.058;10.486;2022-07-04T06:48:49;19.50;99.90
38458;DHT22;24239;48.058;10.486;2022-07-04T06:51:15;19.50;99.90
38458;DHT22;24239;48.058;10.486;2022-07-04T06:53:41;19.60;99.90
38458;DHT22;24239;48.058;10.486;2022-07-04T06:56:08;19.70;99.90
38458;DHT22;24239;48.058;10.486;2022-07-04T06:58:33;19.70;99.90
38458;DHT22;24239;48.058;10.486;2022-07-04T07:00:59;19.90;99.90
38458;DHT22;24239;48.058;10.486;2022-07-04T07:03:25;19.90;99.90
38458;DHT22;24239;48.058;10.486;2022-07-04T07:05:52;20.00;99.90
38458;DHT22;24239;48.058;10.486;2022-07-04T07:08:18;20.10;99.90
38458;DHT22;24239;48.058;10.486;2022-07-04T07:10:44;20.10;99.90
38458;DHT22;24239;48.058;10.486;2022-07-04T07:13:13;20.30;99.90
38458;DHT22;24239;48.058;10.486;2022-07-04T07:15:40;20.40;99.90
38458;DHT22;24239;48.058;10.486;2022-07-04T07:18:06;20.50;99.90
38458;DHT22;24239;48.058;10.486;2022-07-04T07:20:32;20.60;99.90
38458;DHT22;24239;48.058;10.486;2022-07-04T07:22:58;20.60;99.90
38458;DHT22;24239;48.058;10.486;2022-07-04T07:25:24;20.70;99.90
38458;DHT22;24239;48.058;10.486;2022-07-04T07:27:50;21.00;99.90
38458;DHT22;24239;48.058;10.486;2022-07-04T07:30:15;21.10;99.90
38458;DHT22;24239;48.058;10.486;2022-07-04T07:32:41;21.30;99.90
38458;DHT22;24239;48.058;10.486;2022-07-04T07:35:07;21.30;99.90
38458;DHT22;24239;48.058;10.486;2022-07-04T07:37:33;21.20;99.90
38458;DHT22;24239;48.058;10.486;2022-07-04T07:40:00;21.20;99.90
38458;DHT22;24239;48.058;10.486;2022-07-04T07:42:26;21.30;99.90
38458;DHT22;24239;48.058;10.486;2022-07-04T07:44:52;21.30;99.90
38458;DHT22;24239;48.058;10.486;2022-07-04T07:47:18;21.40;99.90
38458;DHT22;24239;48.058;10.486;2022-07-04T07:49:44;21.20;99.90
38458;DHT22;24239;48.058;10.486;2022-07-04T07:52:10;21.10;99.90
38458;DHT22;24239;48.058;10.486;2022-07-04T07:54:36;21.00;99.90
38458;DHT22;24239;48.058;10.486;2022-07-04T07:57:02;21.00;99.90
38458;DHT22;24239;48.058;10.486;2022-07-04T07:59:28;21.00;99.90
38458;DHT22;24239;48.058;10.486;2022-07-04T08:01:54;21.00;99.90
38458;DHT22;24239;48.058;10.486;2022-07-04T08:04:20;21.00;99.90
38458;DHT22;24239;48.058;10.486;2022-07-04T08:07:09;21.00;99.90
38458;DHT22;24239;48.058;10.486;2022-07-04T08:09:36;21.10;99.90
38458;DHT22;24239;48.058;10.486;2022-07-04T08:12:03;21.20;99.90
38458;DHT22;24239;48.058;10.486;2022-07-04T08:14:30;21.40;99.90
38458;DHT22;24239;48.058;10.486;2022-07-04T08:16:57;21.70;99.90
38458;DHT22;24239;48.058;10.486;2022-07-04T08:19:24;21.80;99.90
38458;DHT22;24239;48.058;10.486;2022-07-04T08:21:53;21.90;99.90
38458;DHT22;24239;48.058;10.486;2022-07-04T08:24:19;22.20;99.90
38458;DHT22;24239;48.058;10.486;2022-07-04T08:26:46;22.40;99.90
38458;DHT22;24239;48.058;10.486;2022-07-04T08:29:20;22.70;99.90
38458;DHT22;24239;48.058;10.486;2022-07-04T08:31:47;22.90;99.90
38458;DHT22;24239;48.058;10.486;2022-07-04T08:34:13;22.80;99.90
38458;DHT22;24239;48.058;10.486;2022-07-04T08:36:39;22.80;99.90
38458;DHT22;24239;48.058;10.486;2022-07-04T08:39:05;22.70;99.90
38458;DHT22;24239;48.058;10.486;2022-07-04T08:41:39;22.60;99.90
38458;DHT22;24239;48.058;10.486;2022-07-04T08:44:09;22.60;99.90
38458;DHT22;24239;48.058;10.486;2022-07-04T08:46:38;22.60;99.90
38458;DHT22;24239;48.058;10.486;2022-07-04T08:49:11;22.40;99.90
38458;DHT22;24239;48.058;10.486;2022-07-04T08:51:56;22.40;99.90
38458;DHT22;24239;48.058;10.486;2022-07-04T08:54:25;22.40;99.90
38458;DHT22;24239;48.058;10.486;2022-07-04T08:57:10;22.40;99.90
38458;DHT22;24239;48.058;10.486;2022-07-04T08:59:54;22.50;99.90
38458;DHT22;24239;48.058;10.486;2022-07-04T09:02:22;22.50;99.90
38458;DHT22;24239;48.058;10.486;2022-07-04T09:04:49;22.60;99.90
38458;DHT22;24239;48.058;10.486;2022-07-04T09:07:15;22.60;99.90
38458;DHT22;24239;48.058;10.486;2022-07-04T09:09:41;22.70;99.90
38458;DHT22;24239;48.058;10.486;2022-07-04T09:12:11;22.80;99.90
38458;DHT22;24239;48.058;10.486;2022-07-04T09:14:38;22.90;99.90
38458;DHT22;24239;48.058;10.486;2022-07-04T09:17:05;23.00;99.90
38458;DHT22;24239;48.058;10.486;2022-07-04T09:19:31;23.30;99.90
38458;DHT22;24239;48.058;10.486;2022-07-04T09:22:05;23.70;99.90
38458;DHT22;24239;48.058;10.486;2022-07-04T09:24:44;24.10;99.90
38458;DHT22;24239;48.058;10.486;2022-07-04T09:27:10;24.20;99.90
38458;DHT22;24239;48.058;10.486;2022-07-04T09:29:52;24.10;99.90
38458;DHT22;24239;48.058;10.486;2022-07-04T09:35:08;23.90;99.90
38458;DHT22;24239;48.058;10.486;2022-07-04T09:40:06;23.90;99.90
38458;DHT22;24239;48.058;10.486;2022-07-04T09:42:41;24.10;99.90
38458;DHT22;24239;48.058;10.486;2022-07-04T09:45:09;24.40;99.90
38458;DHT22;24239;48.058;10.486;2022-07-04T09:47:37;24.60;99.90
38458;DHT22;24239;48.058;10.486;2022-07-04T09:50:04;24.60;99.90
38458;DHT22;24239;48.058;10.486;2022-07-04T09:52:30;24.60;99.90
38458;DHT22;24239;48.058;10.486;2022-07-04T09:55:02;24.60;99.90
38458;DHT22;24239;48.058;10.486;2022-07-04T09:57:31;24.40;99.90
38458;DHT22;24239;48.058;10.486;2022-07-04T10:00:19;24.50;99.90
38458;DHT22;24239;48.058;10.486;2022-07-04T10:02:45;24.70;99.90
38458;DHT22;24239;48.058;10.486;2022-07-04T10:05:11;25.00;99.90
38458;DHT22;24239;48.058;10.486;2022-07-04T10:07:40;25.30;99.90
38458;DHT22;24239;48.058;10.486;2022-07-04T10:12:55;25.70;99.90
38458;DHT22;24239;48.058;10.486;2022-07-04T10:15:22;25.80;99.90
38458;DHT22;24239;48.058;10.486;2022-07-04T10:17:48;26.00;99.90
38458;DHT22;24239;48.058;10.486;2022-07-04T10:20:14;26.00;99.90
38458;DHT22;24239;48.058;10.486;2022-07-04T10:22:40;25.90;99.90
38458;DHT22;24239;48.058;10.486;2022-07-04T10:25:08;25.70;99.90
38458;DHT22;24239;48.058;10.486;2022-07-04T10:27:35;25.60;99.90
38458;DHT22;24239;48.058;10.486;2022-07-04T10:30:03;25.50;99.90
38458;DHT22;24239;48.058;10.486;2022-07-04T10:32:30;25.40;99.90
38458;DHT22;24239;48.058;10.486;2022-07-04T10:34:56;25.30;99.90
38458;DHT22;24239;48.058;10.486;2022-07-04T10:37:22;25.20;99.90
38458;DHT22;24239;48.058;10.486;2022-07-04T10:39:48;25.30;99.90
38458;DHT22;24239;48.058;10.486;2022-07-04T10:42:24;25.30;99.90
38458;DHT22;24239;48.058;10.486;2022-07-04T10:44:50;25.40;99.90
38458;DHT22;24239;48.058;10.486;2022-07-04T10:47:23;25.50;99.90
38458;DHT22;24239;48.058;10.486;2022-07-04T10:49:51;25.50;99.90
38458;DHT22;24239;48.058;10.486;2022-07-04T10:52:17;25.40;99.90
38458;DHT22;24239;48.058;10.486;2022-07-04T10:54:44;25.40;99.90
38458;DHT22;24239;48.058;10.486;2022-07-04T11:02:24;25.40;99.90
38458;DHT22;24239;48.058;10.486;2022-07-04T11:17:55;24.40;99.90
38458;DHT22;24239;48.058;10.486;2022-07-04T11:20:23;24.30;99.90
38458;DHT22;24239;48.058;10.486;2022-07-04T11:22:49;24.20;99.90
38458;DHT22;24239;48.058;10.486;2022-07-04T11:25:15;24.20;99.90
38458;DHT22;24239;48.058;10.486;2022-07-04T11:27:41;24.30;99.90
38458;DHT22;24239;48.058;10.486;2022-07-04T11:30:08;24.20;99.90
38458;DHT22;24239;48.058;10.486;2022-07-04T11:32:36;24.20;99.90
38458;DHT22;24239;48.058;10.486;2022-07-04T11:35:04;24.20;99.90
38458;DHT22;24239;48.058;10.486;2022-07-04T11:37:30;24.10;99.90
38458;DHT22;24239;48.058;10.486;2022-07-04T11:39:57;24.20;99.90
38458;DHT22;24239;48.058;10.486;2022-07-04T11:43:07;24.20;99.90
38458;DHT22;24239;48.058;10.486;2022-07-04T11:45:52;24.00;99.90
38458;DHT22;24239;48.058;10.486;2022-07-04T11:48:25;24.10;99.90
38458;DHT22;24239;48.058;10.486;2022-07-04T11:50:51;24.20;99.90
38458;DHT22;24239;48.058;10.486;2022-07-04T11:53:18;24.30;99.90
38458;DHT22;24239;48.058;10.486;2022-07-04T11:55:54;24.50;99.90
38458;DHT22;24239;48.058;10.486;2022-07-04T11:58:22;24.50;99.90
38458;DHT22;24239;48.058;10.486;2022-07-04T12:00:47;24.50;99.90
38458;DHT22;24239;48.058;10.486;2022-07-04T12:03:13;24.70;99.90
38458;DHT22;24239;48.058;10.486;2022-07-04T12:05:39;24.80;99.90
38458;DHT22;24239;48.058;10.486;2022-07-04T12:08:05;25.00;99.90
38458;DHT22;24239;48.058;10.486;2022-07-04T12:10:33;25.20;99.90
38458;DHT22;24239;48.058;10.486;2022-07-04T12:13:07;25.60;99.90
38458;DHT22;24239;48.058;10.486;2022-07-04T12:15:42;25.70;99.90
38458;DHT22;24239;48.058;10.486;2022-07-04T12:18:29;25.90;99.90
38458;DHT22;24239;48.058;10.486;2022-07-04T12:21:11;26.00;99.90
38458;DHT22;24239;48.058;10.486;2022-07-04T12:23:38;26.30;99.90
38458;DHT22;24239;48.058;10.486;2022-07-04T12:26:05;26.40;99.90
38458;DHT22;24239;48.058;10.486;2022-07-04T12:28:35;26.50;99.90
38458;DHT22;24239;48.058;10.486;2022-07-04T12:31:02;26.70;99.90
38458;DHT22;24239;48.058;10.486;2022-07-04T12:33:29;26.60;99.90
38458;DHT22;24239;48.058;10.486;2022-07-04T12:35:59;26.20;99.90
38458;DHT22;24239;48.058;10.486;2022-07-04T12:41:04;26.00;99.90
38458;DHT22;24239;48.058;10.486;2022-07-04T12:46:08;25.70;99.90
38458;DHT22;24239;48.058;10.486;2022-07-04T12:48:34;25.70;99.90
38458;DHT22;24239;48.058;10.486;2022-07-04T12:51:19;25.60;99.90
38458;DHT22;24239;48.058;10.486;2022-07-04T12:53:47;25.90;99.90
38458;DHT22;24239;48.058;10.486;2022-07-04T12:58:55;25.80;99.80
38458;DHT22;24239;48.058;10.486;2022-07-04T13:01:21;25.70;99.90
38458;DHT22;24239;48.058;10.486;2022-07-04T13:03:47;25.90;99.90
38458;DHT22;24239;48.058;10.486;2022-07-04T13:06:12;25.90;99.90
38458;DHT22;24239;48.058;10.486;2022-07-04T13:08:38;26.10;99.90
38458;DHT22;24239;48.058;10.486;2022-07-04T13:11:04;26.20;99.50
38458;DHT22;24239;48.058;10.486;2022-07-04T13:13:48;26.30;99.90
38458;DHT22;24239;48.058;10.486;2022-07-04T13:16:14;26.50;99.40
38458;DHT22;24239;48.058;10.486;2022-07-04T13:18:40;26.80;99.90
38458;DHT22;24239;48.058;10.486;2022-07-04T13:21:06;27.00;99.50
38458;DHT22;24239;48.058;10.486;2022-07-04T13:23:32;27.10;99.80
38458;DHT22;24239;48.058;10.486;2022-07-04T13:25:58;27.20;98.70
38458;DHT22;24239;48.058;10.486;2022-07-04T13:28:24;27.30;97.80
38458;DHT22;24239;48.058;10.486;2022-07-04T13:30:50;27.20;98.20
38458;DHT22;24239;48.058;10.486;2022-07-04T13:33:15;27.20;98.50
38458;DHT22;24239;48.058;10.486;2022-07-04T13:35:41;27.20;98.30
38458;DHT22;24239;48.058;10.486;2022-07-04T13:38:07;27.30;98.80
38458;DHT22;24239;48.058;10.486;2022-07-04T13:40:33;27.30;98.40
38458;DHT22;24239;48.058;10.486;2022-07-04T13:43:02;27.40;97.10
38458;DHT22;24239;48.058;10.486;2022-07-04T13:45:35;27.30;97.00
38458;DHT22;24239;48.058;10.486;2022-07-04T13:48:01;27.40;97.10
38458;DHT22;24239;48.058;10.486;2022-07-04T13:50:27;27.60;98.40
38458;DHT22;24239;48.058;10.486;2022-07-04T13:52:53;27.60;98.00
38458;DHT22;24239;48.058;10.486;2022-07-04T13:55:18;27.50;98.30
38458;DHT22;24239;48.058;10.486;2022-07-04T13:57:44;27.00;97.40
38458;DHT22;24239;48.058;10.486;2022-07-04T14:00:10;26.80;97.70
38458;DHT22;24239;48.058;10.486;2022-07-04T14:02:36;26.60;98.10
38458;DHT22;24239;48.058;10.486;2022-07-04T14:05:02;26.50;98.10
38458;DHT22;24239;48.058;10.486;2022-07-04T14:07:29;26.70;99.10
38458;DHT22;24239;48.058;10.486;2022-07-04T14:09:54;27.00;97.70
38458;DHT22;24239;48.058;10.486;2022-07-04T14:12:20;27.30;97.90
38458;DHT22;24239;48.058;10.486;2022-07-04T14:14:46;27.60;97.20
38458;DHT22;24239;48.058;10.486;2022-07-04T14:17:12;27.70;97.80
38458;DHT22;24239;48.058;10.486;2022-07-04T14:19:42;28.10;97.30
38458;DHT22;24239;48.058;10.486;2022-07-04T14:22:08;28.40;97.30
38458;DHT22;24239;48.058;10.486;2022-07-04T14:24:34;28.30;97.10
38458;DHT22;24239;48.058;10.486;2022-07-04T14:27:00;28.30;96.00
38458;DHT22;24239;48.058;10.486;2022-07-04T14:29:26;28.20;96.60
38458;DHT22;24239;48.058;10.486;2022-07-04T14:31:52;28.00;96.00
38458;DHT22;24239;48.058;10.486;2022-07-04T14:34:18;28.10;96.50
38458;DHT22;24239;48.058;10.486;2022-07-04T14:36:44;27.90;96.70
38458;DHT22;24239;48.058;10.486;2022-07-04T14:39:10;27.80;96.90
38458;DHT22;24239;48.058;10.486;2022-07-04T14:41:36;27.50;97.40
38458;DHT22;24239;48.058;10.486;2022-07-04T14:44:02;27.30;96.90
38458;DHT22;24239;48.058;10.486;2022-07-04T14:46:28;27.20;97.00
38458;DHT22;24239;48.058;10.486;2022-07-04T14:48:56;27.10;97.50
38458;DHT22;24239;48.058;10.486;2022-07-04T14:51:22;27.00;97.30
38458;DHT22;24239;48.058;10.486;2022-07-04T14:53:48;27.10;97.40
38458;DHT22;24239;48.058;10.486;2022-07-04T14:56:13;27.00;98.10
38458;DHT22;24239;48.058;10.486;2022-07-04T14:58:39;26.80;97.60
38458;DHT22;24239;48.058;10.486;2022-07-04T15:01:05;26.80;97.90
38458;DHT22;24239;48.058;10.486;2022-07-04T15:03:31;26.60;98.50
38458;DHT22;24239;48.058;10.486;2022-07-04T15:05:56;26.30;98.50
38458;DHT22;24239;48.058;10.486;2022-07-04T15:08:22;26.00;99.00
38458;DHT22;24239;48.058;10.486;2022-07-04T15:10:48;25.90;99.50
38458;DHT22;24239;48.058;10.486;2022-07-04T15:13:14;25.70;99.50
38458;DHT22;24239;48.058;10.486;2022-07-04T15:15:41;25.60;99.70
38458;DHT22;24239;48.058;10.486;2022-07-04T15:18:07;25.50;99.90
38458;DHT22;24239;48.058;10.486;2022-07-04T15:20:33;25.40;99.90
38458;DHT22;24239;48.058;10.486;2022-07-04T15:23:17;25.30;99.90
38458;DHT22;24239;48.058;10.486;2022-07-04T15:26:02;25.10;99.90
38458;DHT22;24239;48.058;10.486;2022-07-04T15:28:28;25.00;99.90
38458;DHT22;24239;48.058;10.486;2022-07-04T15:30:54;24.90;99.90
38458;DHT22;24239;48.058;10.486;2022-07-04T15:33:20;24.90;99.90
38458;DHT22;24239;48.058;10.486;2022-07-04T15:35:53;24.70;99.90
38458;DHT22;24239;48.058;10.486;2022-07-04T15:38:20;24.70;99.90
38458;DHT22;24239;48.058;10.486;2022-07-04T15:40:46;24.60;99.90
38458;DHT22;24239;48.058;10.486;2022-07-04T15:43:12;24.50;99.90
38458;DHT22;24239;48.058;10.486;2022-07-04T15:45:38;24.50;99.90
38458;DHT22;24239;48.058;10.486;2022-07-04T15:48:04;24.40;99.90
38458;DHT22;24239;48.058;10.486;2022-07-04T15:50:30;24.30;99.90